Capaldo, Kansas
Current Conditions -  °F | °C
As of 3:35 AM on Monday 20 Oct 2014 (Local Time) from KPTS Reporting Station
Overcast Overcast  
Wind Chill: 61°   Ceiling: 8000
Heat Index: 61°   Visibility: 10mi
Dew Point: 55°   Wind: 6mph
Humidity: 82%   Direction: 220°SW
Pressure: 30.02"   Gusts: NA
Location:  37.4268°N, 94.7004°W
Report Text: KPTS 200835Z AUTO 22005KT 10SM SCT060 OVC080 16/13 A3002 RMK AO2 T01610130
Loading
Personal Weather Stations






























Interactive Weather Map
Tropical Storm Tracking
New forecast layout! Learn more

10-Day Weather Forecast

Advertisements
Track Severe Weather on mobile